Terminal Aerodrome Forecast
Issued by NWS Sterling, VA

Current Version | Previous Version | Graphics & Text | Print | Product List | Glossary On
Versions: 1 2 3 4 5 6 7 8 9 10 11 12 13 14 15 16 17 18 19 20 21 22 23 24 25 26 27 28
000
FTUS41 KLWX 032157 AAB
TAFIAD
TAF AMD
KIAD 032157Z 0322/0424 31006KT P6SM SCT060 SCT200
      TEMPO 0322/0323 09011G20KT
     FM041300 03004KT P6SM SCT050 BKN200
     FM042000 08008KT P6SM BKN050=

USA.gov is the U.S. government's official web portal to all federal, state and local government web resources and services.